Time;durP1;ratioP1;P1;durP2;ratioP2;P2;SDS_P1;SDS_P2;PMS_P1;PMS_P2;Temp;Humidity;BMP_temperature;BMP_pressure;BME280_temperature;BME280_humidity;BME280_pressure;Samples;Min_cycle;Max_cycle;Signal;HPM_P1;HPM_P2
2022/01/05 00:00:32;;;;;;;5.63;1.52;;;5.10;93.00;;;;;;5040100;28;20079;-67
2022/01/05 00:02:57;;;;;;;7.25;1.88;;;5.10;93.00;;;;;;5035349;28;20025;-67
2022/01/05 00:05:23;;;;;;;3.13;1.50;;;5.10;93.10;;;;;;5049762;28;20048;-67
2022/01/05 00:07:49;;;;;;;4.50;1.48;;;5.10;93.10;;;;;;5054841;28;20021;-67
2022/01/05 00:10:15;;;;;;;2.63;1.13;;;5.00;93.40;;;;;;5042576;28;20041;-67
2022/01/05 00:12:41;;;;;;;7.28;1.60;;;5.00;93.10;;;;;;5055211;28;20021;-67
2022/01/05 00:15:07;;;;;;;4.68;1.90;;;5.00;93.20;;;;;;5054069;28;20059;-67
2022/01/05 00:17:33;;;;;;;8.00;2.00;;;5.00;93.30;;;;;;5055028;28;20029;-67
2022/01/05 00:19:59;;;;;;;10.48;1.60;;;5.00;93.40;;;;;;5055192;28;20128;-67
2022/01/05 00:22:24;;;;;;;7.00;1.55;;;4.90;93.40;;;;;;5054482;28;20025;-67
2022/01/05 00:24:50;;;;;;;5.25;1.45;;;4.90;93.40;;;;;;5054732;28;20380;-67
2022/01/05 00:27:17;;;;;;;8.73;1.38;;;5.00;93.80;;;;;;5055100;28;20116;-67
2022/01/05 00:29:43;;;;;;;0.70;0.70;;;5.00;93.50;;;;;;5040696;28;20074;-67
2022/01/05 00:32:12;;;;;;;14.45;1.88;;;5.00;93.50;;;;;;5066579;28;20079;-67
2022/01/05 00:34:37;;;;;;;7.38;1.67;;;5.00;93.40;;;;;;5054545;28;20475;-67
2022/01/05 00:37:04;;;;;;;8.65;1.55;;;5.10;93.40;;;;;;5048111;28;20060;-67
2022/01/05 00:39:29;;;;;;;3.42;1.20;;;5.10;93.30;;;;;;5047568;28;20118;-67
2022/01/05 00:41:55;;;;;;;3.80;1.48;;;5.10;93.30;;;;;;5054055;28;20042;-67
2022/01/05 00:44:21;;;;;;;5.78;1.52;;;5.10;93.30;;;;;;5040910;28;20029;-67
2022/01/05 00:46:47;;;;;;;9.50;1.50;;;5.00;93.20;;;;;;5034269;28;20484;-68
2022/01/05 00:49:13;;;;;;;11.73;1.85;;;5.10;93.30;;;;;;5050410;28;20028;-68
2022/01/05 00:51:39;;;;;;;2.17;1.13;;;5.10;93.20;;;;;;5053004;28;20041;-67
2022/01/05 00:54:05;;;;;;;7.18;1.65;;;5.10;93.20;;;;;;5053784;28;20045;-68
2022/01/05 00:56:31;;;;;;;5.32;1.27;;;5.10;93.20;;;;;;5046310;28;20106;-68
2022/01/05 00:58:57;;;;;;;7.68;1.58;;;5.00;93.10;;;;;;5035330;28;20084;-68
2022/01/05 01:01:23;;;;;;;8.93;1.65;;;5.10;93.10;;;;;;5053977;28;20497;-68
2022/01/05 01:03:49;;;;;;;9.32;1.85;;;5.00;93.10;;;;;;5053328;28;20048;-68
2022/01/05 01:06:15;;;;;;;12.75;1.60;;;5.00;93.10;;;;;;5054195;28;20035;-68
2022/01/05 01:08:41;;;;;;;6.50;1.63;;;5.00;93.20;;;;;;5051642;28;20384;-68
2022/01/05 01:11:06;;;;;;;6.65;2.03;;;5.00;93.30;;;;;;5033280;28;20029;-68
2022/01/05 01:13:32;;;;;;;7.40;1.83;;;4.90;93.30;;;;;;5046859;28;20041;-67
2022/01/05 01:15:58;;;;;;;6.30;1.60;;;4.90;93.40;;;;;;5043358;28;20029;-68
2022/01/05 01:18:24;;;;;;;6.65;1.95;;;5.00;93.50;;;;;;5049623;28;20064;-68
2022/01/05 01:20:50;;;;;;;3.17;1.13;;;4.90;93.40;;;;;;5044131;28;20044;-68
2022/01/05 01:23:20;;;;;;;8.45;1.80;;;5.00;93.40;;;;;;5053448;28;20536;-68
2022/01/05 01:25:46;;;;;;;12.82;2.83;;;5.10;93.50;;;;;;5042087;28;20029;-68
2022/01/05 01:28:12;;;;;;;4.85;1.38;;;5.10;93.30;;;;;;5037948;28;20484;-68
2022/01/05 01:30:38;;;;;;;10.13;1.58;;;5.10;93.20;;;;;;5056785;28;20036;-68
2022/01/05 01:33:03;;;;;;;13.27;2.45;;;5.00;93.20;;;;;;5047556;28;20040;-68
2022/01/05 01:35:29;;;;;;;12.25;2.15;;;5.10;93.20;;;;;;5052742;28;20381;-68
2022/01/05 01:37:56;;;;;;;6.85;1.52;;;5.10;93.10;;;;;;5040699;28;20054;-68
2022/01/05 01:40:22;;;;;;;8.68;1.85;;;5.00;93.00;;;;;;5046348;28;20116;-68
2022/01/05 01:42:48;;;;;;;8.95;1.83;;;5.00;93.10;;;;;;5033663;28;20052;-67
2022/01/05 01:45:14;;;;;;;12.05;2.47;;;4.90;93.10;;;;;;5053216;28;20063;-68
2022/01/05 01:47:40;;;;;;;11.23;2.25;;;4.90;93.10;;;;;;5043507;28;20110;-67
2022/01/05 01:50:06;;;;;;;7.28;2.10;;;4.90;93.20;;;;;;5046302;28;20145;-67
2022/01/05 01:52:35;;;;;;;13.45;2.30;;;4.90;93.20;;;;;;5033572;28;20040;-68
2022/01/05 01:55:02;;;;;;;11.20;1.92;;;4.80;93.30;;;;;;5052875;28;20037;-67
2022/01/05 01:57:30;;;;;;;12.00;2.30;;;4.70;93.40;;;;;;5050490;28;20059;-68
2022/01/05 01:59:58;;;;;;;12.07;2.80;;;4.70;93.50;;;;;;5032217;28;20060;-68
2022/01/05 02:02:23;;;;;;;11.32;2.33;;;4.70;93.50;;;;;;5046285;28;20032;-68
2022/01/05 02:04:49;;;;;;;11.88;2.83;;;4.60;93.60;;;;;;5033142;28;20033;-68
2022/01/05 02:07:15;;;;;;;12.95;2.30;;;4.60;93.70;;;;;;5045422;28;20547;-67
2022/01/05 02:09:41;;;;;;;9.50;2.45;;;4.50;93.70;;;;;;5043564;28;20104;-67
2022/01/05 02:12:08;;;;;;;11.93;2.35;;;4.60;93.80;;;;;;5038585;28;20494;-68
2022/01/05 02:14:34;;;;;;;14.35;3.10;;;4.60;93.80;;;;;;5051983;28;20055;-68
2022/01/05 02:17:04;;;;;;;9.32;2.30;;;4.50;93.80;;;;;;5052718;28;20427;-68
2022/01/05 02:19:30;;;;;;;14.40;2.35;;;4.50;93.90;;;;;;5040695;28;20025;-67
2022/01/05 02:21:56;;;;;;;11.02;2.60;;;4.50;93.90;;;;;;5037704;28;20386;-68
2022/01/05 02:24:21;;;;;;;10.90;2.50;;;4.50;94.00;;;;;;5039957;28;20405;-70
2022/01/05 02:26:47;;;;;;;8.35;2.13;;;4.40;93.90;;;;;;5032421;28;20100;-68
2022/01/05 02:29:13;;;;;;;12.68;2.10;;;4.50;94.00;;;;;;5045191;28;20044;-67
2022/01/05 02:31:39;;;;;;;14.23;2.67;;;4.50;94.00;;;;;;5057160;28;20035;-68
2022/01/05 02:34:05;;;;;;;12.63;2.47;;;4.40;93.90;;;;;;5044634;28;20076;-68
2022/01/05 02:36:31;;;;;;;13.50;2.58;;;4.50;94.00;;;;;;5032391;28;20049;-69
2022/01/05 02:38:56;;;;;;;6.55;1.80;;;4.50;94.00;;;;;;5049336;28;20033;-68
2022/01/05 02:41:22;;;;;;;10.25;2.33;;;4.50;94.00;;;;;;5052297;28;20076;-68
2022/01/05 02:43:48;;;;;;;10.32;2.20;;;4.50;94.00;;;;;;5043154;28;20060;-68
2022/01/05 02:46:20;;;;;;;10.02;1.63;;;4.50;94.00;;;;;;5050515;28;20021;-68
2022/01/05 02:48:49;;;;;;;7.38;2.13;;;4.50;93.90;;;;;;5051764;28;20032;-68
2022/01/05 02:51:15;;;;;;;12.98;2.63;;;4.60;93.90;;;;;;5051990;28;20154;-68
2022/01/05 02:53:40;;;;;;;12.00;2.97;;;4.50;93.90;;;;;;5050747;28;20494;-68
2022/01/05 02:56:06;;;;;;;13.43;2.65;;;4.50;94.00;;;;;;5042311;28;20029;-68
2022/01/05 02:58:32;;;;;;;11.35;2.22;;;4.50;94.10;;;;;;5047736;28;20057;-68
2022/01/05 03:00:58;;;;;;;17.88;3.05;;;4.50;94.20;;;;;;5043040;28;20021;-68
2022/01/05 03:03:23;;;;;;;13.27;2.88;;;4.50;94.20;;;;;;5049254;28;20040;-67
2022/01/05 03:05:49;;;;;;;9.68;2.30;;;4.50;94.20;;;;;;5047143;28;20029;-68
2022/01/05 03:08:15;;;;;;;21.00;3.25;;;4.50;94.30;;;;;;5036315;28;20037;-68
2022/01/05 03:10:41;;;;;;;13.20;2.92;;;4.50;94.40;;;;;;5044421;28;20841;-68
2022/01/05 03:13:07;;;;;;;10.20;1.75;;;4.50;94.50;;;;;;5046841;28;20045;-67
2022/01/05 03:15:35;;;;;;;15.15;2.72;;;4.50;94.50;;;;;;5036354;28;20068;-68
2022/01/05 03:18:02;;;;;;;21.27;3.17;;;4.60;94.60;;;;;;5053056;28;20044;-68
2022/01/05 03:20:30;;;;;;;9.27;2.30;;;4.60;94.70;;;;;;5044140;28;20029;-67
2022/01/05 03:22:57;;;;;;;6.93;2.75;;;4.50;94.80;;;;;;5035717;28;20026;-68
2022/01/05 03:25:24;;;;;;;12.23;2.88;;;4.60;94.90;;;;;;5036055;28;20041;-68
2022/01/05 03:27:51;;;;;;;13.45;2.88;;;4.60;94.90;;;;;;5055517;28;20033;-68
2022/01/05 03:30:25;;;;;;;14.73;3.13;;;4.70;95.00;;;;;;5055386;28;20037;-68
2022/01/05 03:35:20;;;;;;;13.32;2.92;;;4.60;95.20;;;;;;5055405;28;20037;-67
2022/01/05 03:37:46;;;;;;;13.55;3.15;;;4.60;95.30;;;;;;5046367;28;20034;-68
2022/01/05 03:40:11;;;;;;;16.30;2.80;;;4.60;95.30;;;;;;5048970;28;20079;-67
2022/01/05 03:42:37;;;;;;;13.80;2.78;;;4.70;95.30;;;;;;5045612;28;20025;-67
2022/01/05 03:45:03;;;;;;;7.30;2.33;;;4.70;95.30;;;;;;5052266;28;20040;-68
2022/01/05 03:47:29;;;;;;;16.45;2.58;;;4.70;95.30;;;;;;5045603;28;20038;-67
2022/01/05 03:49:54;;;;;;;12.02;2.55;;;4.80;95.30;;;;;;5048616;28;20037;-67
2022/01/05 03:52:20;;;;;;;9.27;2.40;;;4.80;95.50;;;;;;5053875;28;20033;-68
2022/01/05 03:54:45;;;;;;;7.50;2.20;;;4.80;95.30;;;;;;5055314;28;20033;-67
2022/01/05 03:57:11;;;;;;;14.70;2.50;;;4.70;95.40;;;;;;5048284;28;20381;-67
2022/01/05 03:59:37;;;;;;;9.70;2.20;;;4.70;95.40;;;;;;5034819;28;20128;-68
2022/01/05 04:02:03;;;;;;;15.25;2.35;;;4.70;95.50;;;;;;5035362;28;20028;-67
2022/01/05 04:04:31;;;;;;;7.85;2.03;;;4.70;95.50;;;;;;5048215;28;20044;-68
2022/01/05 04:07:00;;;;;;;14.63;3.00;;;4.80;95.50;;;;;;5043040;28;20037;-68
2022/01/05 04:09:25;;;;;;;13.05;2.55;;;4.80;95.50;;;;;;5055002;28;20029;-67
2022/01/05 04:11:54;;;;;;;9.38;2.58;;;4.80;95.50;;;;;;5055168;28;20029;-68
2022/01/05 04:14:19;;;;;;;9.10;1.98;;;4.80;95.60;;;;;;5040950;28;20122;-68
2022/01/05 04:16:45;;;;;;;10.20;2.38;;;4.70;95.60;;;;;;5045508;28;20061;-68
2022/01/05 04:19:11;;;;;;;11.50;2.63;;;4.70;95.60;;;;;;5048095;28;20529;-68
2022/01/05 04:21:36;;;;;;;16.08;3.00;;;4.70;95.60;;;;;;5034371;28;20466;-68
2022/01/05 04:24:02;;;;;;;9.15;2.05;;;4.80;95.60;;;;;;5038344;28;20369;-67
2022/01/05 04:26:28;;;;;;;5.35;1.85;;;4.80;95.60;;;;;;5044501;28;20099;-68
2022/01/05 04:28:53;;;;;;;8.95;2.35;;;4.80;95.80;;;;;;5051093;28;20024;-67
2022/01/05 04:31:19;;;;;;;8.65;2.30;;;4.80;95.80;;;;;;5044679;28;20037;-67
2022/01/05 04:33:45;;;;;;;10.40;2.05;;;4.80;95.80;;;;;;5038815;28;20095;-68
2022/01/05 04:36:10;;;;;;;8.65;2.25;;;4.70;95.80;;;;;;5042670;28;20179;-67
2022/01/05 04:38:36;;;;;;;5.53;1.60;;;4.80;95.90;;;;;;5039090;28;20086;-67
2022/01/05 04:41:01;;;;;;;13.80;2.40;;;4.80;95.90;;;;;;5043143;28;20025;-67
2022/01/05 04:43:27;;;;;;;5.95;1.65;;;4.80;95.90;;;;;;5038031;28;20451;-67
2022/01/05 04:45:53;;;;;;;11.48;2.28;;;4.90;95.90;;;;;;5050246;28;20529;-67
2022/01/05 04:48:18;;;;;;;5.30;1.67;;;4.90;95.80;;;;;;5048022;28;20092;-68
2022/01/05 04:50:44;;;;;;;13.13;2.45;;;4.90;95.80;;;;;;5040464;28;20025;-67
2022/01/05 04:53:11;;;;;;;11.38;2.20;;;4.90;95.70;;;;;;5053965;28;20045;-67
2022/01/05 04:55:39;;;;;;;7.60;1.67;;;5.00;95.70;;;;;;5040604;28;20029;-67
2022/01/05 04:58:04;;;;;;;10.63;2.35;;;5.00;95.60;;;;;;5053858;28;20049;-67
2022/01/05 05:00:30;;;;;;;12.88;1.88;;;5.00;95.50;;;;;;5046553;28;20475;-67
2022/01/05 05:02:56;;;;;;;5.57;1.75;;;5.00;95.50;;;;;;5046390;28;20507;-67
2022/01/05 05:05:21;;;;;;;6.82;1.95;;;5.00;95.50;;;;;;5042241;28;20037;-67
2022/01/05 05:07:47;;;;;;;8.13;1.80;;;4.90;95.60;;;;;;5040845;28;20072;-67
2022/01/05 05:10:13;;;;;;;10.13;2.42;;;5.00;95.60;;;;;;5053398;28;20032;-67
2022/01/05 05:12:38;;;;;;;8.13;1.95;;;5.00;95.90;;;;;;5053662;28;20037;-67
2022/01/05 05:15:04;;;;;;;15.93;2.55;;;4.90;95.70;;;;;;5053978;28;20033;-67
2022/01/05 05:17:30;;;;;;;7.05;1.40;;;4.90;95.80;;;;;;5039696;28;20117;-67
2022/01/05 05:19:56;;;;;;;8.68;1.70;;;4.90;95.90;;;;;;5053748;28;20104;-68
2022/01/05 05:22:21;;;;;;;13.00;2.45;;;4.90;95.90;;;;;;5037277;28;20401;-67
2022/01/05 05:24:47;;;;;;;16.52;2.35;;;4.90;96.00;;;;;;5033139;28;20029;-67
2022/01/05 05:27:12;;;;;;;9.57;2.35;;;4.90;96.10;;;;;;5048946;28;20071;-67
2022/01/05 05:29:38;;;;;;;6.97;1.95;;;4.90;96.10;;;;;;5043552;28;20064;-67
2022/01/05 05:32:05;;;;;;;12.00;1.98;;;5.00;96.10;;;;;;5048790;28;20461;-68
2022/01/05 05:34:31;;;;;;;10.27;2.08;;;5.00;96.10;;;;;;5053469;28;20049;-67
2022/01/05 05:36:59;;;;;;;17.20;2.35;;;5.00;96.20;;;;;;5052982;28;20083;-67
2022/01/05 05:39:25;;;;;;;11.23;2.30;;;5.00;96.20;;;;;;5052825;28;20075;-68
2022/01/05 05:41:51;;;;;;;8.38;2.33;;;5.00;96.30;;;;;;5052986;28;20025;-67
2022/01/05 05:44:16;;;;;;;7.90;2.17;;;5.10;96.40;;;;;;5053362;28;20059;-68
2022/01/05 05:46:42;;;;;;;15.13;3.05;;;5.00;96.30;;;;;;5052205;28;20032;-68
2022/01/05 05:49:15;;;;;;;9.63;2.45;;;5.10;96.30;;;;;;5069990;28;20452;-67
2022/01/05 05:51:40;;;;;;;8.13;2.20;;;5.10;96.40;;;;;;5053353;28;20025;-67
2022/01/05 05:54:09;;;;;;;7.63;1.92;;;5.10;96.50;;;;;;5045558;28;20442;-67
2022/01/05 05:56:34;;;;;;;8.18;2.03;;;5.10;96.70;;;;;;5042344;28;20092;-67
2022/01/05 05:59:00;;;;;;;9.80;2.38;;;5.00;96.90;;;;;;5069283;28;20442;-67
2022/01/05 06:01:27;;;;;;;9.05;2.17;;;5.00;97.00;;;;;;5041612;28;20547;-67
2022/01/05 06:03:53;;;;;;;8.77;2.45;;;5.00;97.00;;;;;;5032032;28;20092;-67
2022/01/05 06:06:18;;;;;;;6.70;1.48;;;5.00;97.10;;;;;;5028563;28;20025;-67
2022/01/05 06:08:44;;;;;;;4.50;1.45;;;5.00;97.10;;;;;;5030707;28;20106;-67
2022/01/05 06:11:10;;;;;;;2.95;1.70;;;5.00;97.20;;;;;;5034340;28;20029;-67
2022/01/05 06:13:35;;;;;;;7.07;1.77;;;5.00;97.20;;;;;;5028289;28;20049;-67
2022/01/05 06:16:02;;;;;;;6.93;1.70;;;5.00;97.30;;;;;;5028717;28;20083;-67
2022/01/05 06:18:28;;;;;;;5.10;1.80;;;4.90;97.40;;;;;;5028964;28;20029;-67
2022/01/05 06:20:56;;;;;;;9.10;1.83;;;4.90;97.50;;;;;;5028264;28;20018;-67
2022/01/05 06:23:22;;;;;;;6.18;1.75;;;4.90;97.60;;;;;;5028911;28;20378;-67
2022/01/05 06:25:47;;;;;;;9.82;2.08;;;5.00;97.50;;;;;;5031960;28;20030;-67
2022/01/05 06:28:13;;;;;;;6.78;1.65;;;5.10;97.50;;;;;;5028630;28;20076;-67
2022/01/05 06:30:39;;;;;;;6.55;1.88;;;5.10;97.40;;;;;;5044020;28;20431;-67
2022/01/05 06:33:08;;;;;;;8.68;1.55;;;5.10;97.30;;;;;;5062202;28;20037;-67
2022/01/05 06:35:34;;;;;;;7.93;1.95;;;5.20;97.30;;;;;;5063239;28;20606;-67
2022/01/05 06:38:00;;;;;;;7.07;1.80;;;5.20;97.30;;;;;;5069257;28;20115;-67
2022/01/05 06:40:26;;;;;;;4.63;1.55;;;5.30;97.30;;;;;;5054456;28;20034;-67
2022/01/05 06:42:51;;;;;;;7.22;1.63;;;5.30;97.50;;;;;;5050085;28;20034;-67
2022/01/05 06:45:17;;;;;;;13.70;2.65;;;5.30;97.20;;;;;;5060303;28;20037;-67
2022/01/05 06:47:43;;;;;;;7.13;1.85;;;5.30;97.20;;;;;;5068481;28;20051;-66
2022/01/05 06:50:10;;;;;;;8.77;2.30;;;5.40;97.30;;;;;;5050935;28;20071;-67
2022/01/05 06:52:36;;;;;;;9.82;2.13;;;5.30;97.30;;;;;;5050399;28;20030;-67
2022/01/05 06:55:03;;;;;;;8.20;1.85;;;5.30;97.50;;;;;;5028303;28;20033;-67
2022/01/05 06:57:28;;;;;;;12.25;2.50;;;5.30;97.50;;;;;;5048635;28;20041;-67
2022/01/05 06:59:54;;;;;;;8.98;1.73;;;5.30;97.50;;;;;;5042550;28;20060;-68
2022/01/05 07:02:20;;;;;;;5.43;1.45;;;5.40;97.40;;;;;;5043430;28;20026;-68
2022/01/05 07:04:46;;;;;;;6.85;1.85;;;5.40;97.40;;;;;;5045295;28;20737;-67
2022/01/05 07:07:12;;;;;;;10.95;2.42;;;5.40;97.50;;;;;;5025521;28;20115;-68
2022/01/05 07:09:37;;;;;;;9.98;2.85;;;5.50;97.50;;;;;;5044021;28;20395;-69
2022/01/05 07:12:03;;;;;;;11.90;2.38;;;5.50;97.40;;;;;;5054772;28;20079;-69
2022/01/05 07:14:29;;;;;;;10.80;3.00;;;5.50;97.50;;;;;;5019649;28;20022;-68
2022/01/05 07:16:55;;;;;;;12.05;2.95;;;5.50;97.50;;;;;;5016761;28;20084;-68
2022/01/05 07:19:21;;;;;;;14.82;2.45;;;5.50;97.60;;;;;;5018004;28;20413;-68
2022/01/05 07:21:47;;;;;;;6.78;2.00;;;5.50;97.60;;;;;;5051897;28;20025;-68
2022/01/05 07:24:17;;;;;;;8.45;1.77;;;5.50;97.80;;;;;;5053884;28;20389;-68
2022/01/05 07:26:44;;;;;;;6.55;1.73;;;5.50;97.80;;;;;;5016200;28;20065;-69
2022/01/05 07:29:13;;;;;;;5.35;1.55;;;5.60;97.80;;;;;;5016105;28;20069;-68
2022/01/05 07:31:40;;;;;;;9.05;1.40;;;5.70;97.80;;;;;;5012410;28;20041;-69
2022/01/05 07:34:06;;;;;;;8.52;2.22;;;5.70;97.60;;;;;;5016699;28;20029;-68
2022/01/05 07:36:32;;;;;;;8.25;2.13;;;5.80;97.50;;;;;;5013341;28;20018;-68
2022/01/05 07:38:59;;;;;;;6.50;1.88;;;5.80;97.40;;;;;;5012321;28;20378;-68
2022/01/05 07:41:26;;;;;;;9.18;1.58;;;5.90;97.30;;;;;;5016259;28;20112;-68
2022/01/05 07:43:53;;;;;;;8.68;1.50;;;5.90;97.30;;;;;;5013979;28;20030;-67
2022/01/05 07:46:19;;;;;;;6.20;1.67;;;5.90;97.30;;;;;;5033426;28;20056;-69
2022/01/05 07:48:46;;;;;;;8.05;1.58;;;5.90;97.20;;;;;;5052172;28;20041;-69
2022/01/05 07:51:12;;;;;;;8.55;1.50;;;5.90;97.20;;;;;;5041929;28;20038;-69
2022/01/05 07:53:38;;;;;;;8.00;3.22;;;5.90;97.20;;;;;;5021982;28;20108;-68
2022/01/05 07:56:07;;;;;;;5.18;1.55;;;5.90;97.20;;;;;;5013521;28;20034;-69
2022/01/05 07:58:33;;;;;;;10.40;1.55;;;5.90;97.20;;;;;;5013146;28;20025;-69
2022/01/05 08:00:59;;;;;;;8.88;1.92;;;5.90;97.30;;;;;;5013770;28;20076;-68
2022/01/05 08:03:25;;;;;;;9.38;2.38;;;5.90;97.30;;;;;;5013525;28;20054;-68
2022/01/05 08:05:51;;;;;;;4.88;1.83;;;6.00;97.30;;;;;;5012581;28;20535;-68
2022/01/05 08:08:17;;;;;;;4.60;1.55;;;5.90;97.30;;;;;;5016215;28;20042;-67
2022/01/05 08:10:43;;;;;;;10.27;2.28;;;5.90;97.40;;;;;;5014022;28;20092;-68
2022/01/05 08:13:09;;;;;;;15.13;1.80;;;6.00;97.40;;;;;;5012501;28;20038;-75
2022/01/05 08:15:35;;;;;;;8.70;1.63;;;6.00;97.40;;;;;;5013374;28;20026;-67
2022/01/05 08:18:01;;;;;;;6.65;1.50;;;6.00;97.40;;;;;;5025999;28;20461;-67
2022/01/05 08:20:27;;;;;;;10.77;1.48;;;6.10;97.50;;;;;;5040801;28;20124;-68
2022/01/05 08:22:53;;;;;;;14.90;2.15;;;6.10;97.70;;;;;;5053318;28;20119;-67
2022/01/05 08:25:20;;;;;;;4.60;1.33;;;6.10;97.30;;;;;;5042287;28;20026;-67
2022/01/05 08:27:46;;;;;;;8.70;2.22;;;6.20;97.30;;;;;;5037260;28;20163;-68
2022/01/05 08:30:22;;;;;;;6.88;2.17;;;6.10;97.30;;;;;;5020329;28;20065;-69
2022/01/05 08:32:51;;;;;;;9.95;1.80;;;6.20;97.50;;;;;;5049226;28;20045;-69
2022/01/05 08:35:19;;;;;;;6.45;1.77;;;6.20;97.50;;;;;;5027305;28;20566;-68
2022/01/05 08:37:46;;;;;;;6.65;1.65;;;6.20;97.50;;;;;;5053428;28;20053;-68
2022/01/05 08:40:18;;;;;;;9.48;2.45;;;6.20;97.70;;;;;;5052997;28;20370;-68
2022/01/05 08:42:44;;;;;;;13.55;1.92;;;6.10;97.80;;;;;;5029278;28;20013;-69
2022/01/05 08:45:10;;;;;;;12.88;2.33;;;6.10;97.90;;;;;;5051289;28;20487;-73
2022/01/05 08:47:36;;;;;;;6.30;1.35;;;6.20;97.90;;;;;;5051973;28;20041;-68
2022/01/05 08:50:03;;;;;;;8.98;1.38;;;6.30;97.90;;;;;;5038088;28;20028;-67
2022/01/05 08:52:28;;;;;;;4.45;1.45;;;6.40;97.80;;;;;;5025316;28;20059;-68
2022/01/05 08:54:55;;;;;;;10.77;2.03;;;6.40;97.60;;;;;;5020117;28;20026;-70
2022/01/05 08:57:21;;;;;;;5.18;1.10;;;6.50;97.50;;;;;;5022551;28;20112;-68
2022/01/05 08:59:47;;;;;;;1.90;0.82;;;6.50;97.30;;;;;;5036510;28;20057;-67
2022/01/05 09:02:16;;;;;;;3.20;1.05;;;6.60;97.20;;;;;;5011816;28;20063;-68
2022/01/05 09:04:42;;;;;;;14.73;2.45;;;6.60;97.10;;;;;;5013369;28;20046;-68
2022/01/05 09:07:12;;;;;;;4.93;1.20;;;6.60;97.00;;;;;;5035999;28;20021;-68
2022/01/05 09:09:37;;;;;;;14.20;1.63;;;6.70;97.00;;;;;;5020038;28;20473;-68
2022/01/05 09:12:04;;;;;;;9.93;1.75;;;6.80;97.00;;;;;;5036860;28;20033;-68
2022/01/05 09:14:30;;;;;;;16.58;2.35;;;6.80;96.90;;;;;;5036923;28;20493;-68
2022/01/05 09:16:56;;;;;;;3.58;1.35;;;6.80;96.80;;;;;;5012420;28;20076;-68
2022/01/05 09:19:21;;;;;;;7.28;2.03;;;6.80;96.80;;;;;;5021467;28;20129;-71
2022/01/05 09:21:49;;;;;;;8.93;2.00;;;6.80;96.80;;;;;;5009279;28;20046;-68
2022/01/05 09:24:17;;;;;;;13.07;2.67;;;6.90;96.70;;;;;;5009278;28;20061;-68
2022/01/05 09:26:43;;;;;;;13.45;2.78;;;6.90;96.70;;;;;;5030817;28;20029;-68
2022/01/05 09:29:09;;;;;;;11.60;1.90;;;6.90;96.70;;;;;;5031242;28;20042;-68
2022/01/05 09:31:34;;;;;;;10.20;1.90;;;7.00;96.70;;;;;;5044565;28;20537;-68
2022/01/05 09:34:00;;;;;;;11.40;1.95;;;7.00;96.70;;;;;;5023903;28;20037;-67
2022/01/05 09:36:36;;;;;;;6.78;1.17;;;7.00;96.70;;;;;;5026112;28;20033;-67
2022/01/05 09:41:59;;;;;;;7.93;1.90;;;7.10;96.70;;;;;;5048641;28;20075;-68
2022/01/05 09:44:26;;;;;;;12.20;2.42;;;7.10;96.60;;;;;;5024900;28;20390;-67
2022/01/05 09:47:10;;;;;;;10.18;1.55;;;7.10;96.60;;;;;;5030066;28;20041;-67
2022/01/05 09:49:37;;;;;;;;;;;7.20;96.70;;;;;;5040492;28;20037;-68
2022/01/05 09:52:08;;;;;;;30.63;2.75;;;7.20;96.60;;;;;;5025679;28;19995;-67
2022/01/05 09:54:35;;;;;;;14.27;2.80;;;7.20;96.60;;;;;;5019035;28;20537;-67
2022/01/05 09:57:02;;;;;;;13.10;1.77;;;7.20;96.20;;;;;;5032192;28;20041;-67
2022/01/05 09:59:32;;;;;;;7.78;1.75;;;7.30;96.00;;;;;;5041165;28;20032;-68
2022/01/05 10:01:58;;;;;;;12.02;2.40;;;7.30;96.10;;;;;;5030217;28;20087;-67
2022/01/05 10:04:23;;;;;;;2.67;0.77;;;7.40;96.20;;;;;;5044193;28;20119;-67
2022/01/05 10:06:49;;;;;;;11.85;2.35;;;7.40;96.10;;;;;;5028051;28;20037;-68
2022/01/05 10:09:15;;;;;;;1.38;0.65;;;7.40;96.10;;;;;;5033312;28;20263;-67
2022/01/05 10:11:41;;;;;;;14.93;2.63;;;7.50;96.10;;;;;;5029965;28;20044;-68
2022/01/05 10:14:09;;;;;;;10.57;2.33;;;7.50;96.10;;;;;;5049800;28;20120;-68
2022/01/05 10:16:35;;;;;;;12.00;1.60;;;7.50;96.00;;;;;;5023439;28;20109;-67
2022/01/05 10:19:00;;;;;;;3.67;1.52;;;7.60;96.00;;;;;;5033946;28;20139;-68
2022/01/05 10:21:39;;;;;;;15.27;2.22;;;7.60;96.00;;;;;;5035949;28;20120;-68
2022/01/05 10:24:06;;;;;;;22.00;4.50;;;7.60;96.00;;;;;;5029611;28;20040;-67
2022/01/05 10:26:32;;;;;;;14.82;1.48;;;7.60;96.20;;;;;;5042772;28;20030;-68
2022/01/05 10:29:06;;;;;;;7.40;1.98;;;7.60;95.90;;;;;;5029917;28;20029;-68
2022/01/05 10:31:37;;;;;;;13.18;1.80;;;7.60;95.80;;;;;;5033216;28;20021;-67
2022/01/05 10:34:26;;;;;;;9.43;1.67;;;7.70;95.90;;;;;;5029887;28;20029;-67
2022/01/05 10:36:55;;;;;;;12.50;1.85;;;7.70;95.80;;;;;;5046122;28;20108;-67
2022/01/05 10:39:28;;;;;;;7.30;2.05;;;7.80;95.80;;;;;;5047248;28;20037;-67
2022/01/05 10:41:54;;;;;;;14.75;2.85;;;7.80;95.80;;;;;;5045022;28;20032;-68
2022/01/05 10:44:22;;;;;;;7.47;2.25;;;7.80;95.80;;;;;;5024751;28;20465;-68
2022/01/05 10:46:58;;;;;;;9.93;1.85;;;7.90;95.80;;;;;;5031809;28;20037;-67
2022/01/05 10:49:34;;;;;;;11.18;1.65;;;7.90;95.80;;;;;;5022404;28;20052;-68
2022/01/05 10:52:22;;;;;;;18.42;3.03;;;7.80;95.80;;;;;;5028663;28;20038;-68
2022/01/05 10:54:49;;;;;;;11.05;2.40;;;7.90;95.90;;;;;;5039157;28;20064;-68
2022/01/05 10:57:15;;;;;;;11.57;2.72;;;7.90;95.80;;;;;;5053866;28;20498;-68
2022/01/05 10:59:43;;;;;;;18.27;2.58;;;7.90;95.80;;;;;;5051306;28;20029;-67
2022/01/05 11:02:31;;;;;;;9.68;1.77;;;7.90;95.90;;;;;;5029149;28;20121;-68
2022/01/05 11:05:06;;;;;;;10.15;2.45;;;8.00;96.00;;;;;;5053321;28;20361;-68
2022/01/05 11:07:39;;;;;;;20.13;3.17;;;8.00;96.00;;;;;;5053065;28;20029;-69
2022/01/05 11:10:10;;;;;;;18.77;2.67;;;8.00;96.00;;;;;;5033592;28;20041;-69
2022/01/05 11:12:41;;;;;;;14.57;2.38;;;8.00;96.00;;;;;;5027414;28;20030;-69
2022/01/05 11:15:36;;;;;;;25.10;3.67;;;8.10;96.00;;;;;;5037836;28;20029;-68
2022/01/05 11:18:19;;;;;;;12.52;1.55;;;8.10;96.00;;;;;;5026682;28;20041;-69
2022/01/05 11:20:55;;;;;;;10.68;2.97;;;8.10;95.90;;;;;;5014178;28;20030;-69
2022/01/05 11:23:25;;;;;;;14.30;2.75;;;8.20;96.00;;;;;;5045615;28;20127;-68
2022/01/05 11:25:53;;;;;;;11.15;2.38;;;8.20;96.00;;;;;;5043880;28;20033;-68
2022/01/05 11:28:21;;;;;;;10.82;2.47;;;8.30;95.80;;;;;;5051392;28;20037;-67
2022/01/05 11:30:49;;;;;;;11.77;1.92;;;8.30;95.90;;;;;;5053341;28;20128;-67
2022/01/05 11:33:15;;;;;;;13.65;1.98;;;8.30;95.90;;;;;;5043566;28;20485;-68
2022/01/05 11:35:41;;;;;;;4.95;1.23;;;8.40;95.90;;;;;;5038282;28;20043;-67
2022/01/05 11:38:08;;;;;;;13.18;2.33;;;8.50;95.80;;;;;;5053188;28;20369;-67
2022/01/05 11:40:37;;;;;;;13.70;1.92;;;8.50;95.80;;;;;;5053862;28;20029;-67
2022/01/05 11:43:08;;;;;;;24.08;4.05;;;8.50;95.80;;;;;;5027246;28;20036;-68
2022/01/05 11:45:45;;;;;;;24.13;3.30;;;8.50;95.70;;;;;;5015995;28;20116;-68
2022/01/05 11:48:28;;;;;;;10.23;2.70;;;8.50;95.30;;;;;;5015959;28;20050;-68
2022/01/05 11:51:01;;;;;;;18.95;3.45;;;8.60;95.60;;;;;;5014720;28;20113;-68
2022/01/05 11:53:33;;;;;;;22.70;3.13;;;8.60;95.40;;;;;;5016060;28;20030;-68
2022/01/05 11:56:04;;;;;;;18.80;3.50;;;8.70;94.90;;;;;;5013288;28;20049;-68
2022/01/05 11:58:33;;;;;;;12.57;2.58;;;8.70;95.20;;;;;;5012575;28;20081;-68
2022/01/05 12:01:17;;;;;;;22.27;3.10;;;8.70;94.50;;;;;;5018537;28;20038;-68
2022/01/05 12:03:46;;;;;;;;;;;8.70;94.20;;;;;;5012421;28;20030;-70
2022/01/05 12:06:12;;;;;;;10.98;1.65;;;8.80;94.80;;;;;;5013813;28;19997;-69
2022/01/05 12:08:46;;;;;;;19.48;3.20;;;8.80;94.70;;;;;;5012505;28;20132;-69
2022/01/05 12:11:34;;;;;;;8.85;1.92;;;8.80;94.80;;;;;;5012091;28;20548;-67
2022/01/05 12:14:01;;;;;;;3.80;1.75;;;8.80;95.20;;;;;;5015637;28;20045;-69
2022/01/05 12:16:27;;;;;;;16.63;2.35;;;8.90;95.20;;;;;;5014165;28;20026;-70
2022/01/05 12:19:07;;;;;;;20.50;3.25;;;8.90;95.60;;;;;;5012071;28;20024;-68
2022/01/05 12:21:47;;;;;;;16.55;3.40;;;8.90;94.60;;;;;;5012290;28;20443;-74
2022/01/05 12:24:14;;;;;;;10.70;2.03;;;8.90;95.10;;;;;;5012560;28;20037;-68
2022/01/05 12:26:43;;;;;;;20.27;2.78;;;9.00;95.20;;;;;;5014555;28;20038;-67
2022/01/05 12:29:13;;;;;;;7.32;2.13;;;9.10;95.30;;;;;;5012660;28;20125;-66
2022/01/05 12:31:51;;;;;;;12.90;2.20;;;9.10;95.00;;;;;;5012446;28;20160;-67
2022/01/05 12:34:55;;;;;;;7.70;2.08;;;9.10;94.90;;;;;;5012123;28;20034;-66
2022/01/05 12:37:48;;;;;;;19.80;3.15;;;9.20;95.00;;;;;;5011709;28;20121;-68
2022/01/05 12:40:34;;;;;;;10.38;2.17;;;9.20;94.70;;;;;;5011847;28;20500;-71
2022/01/05 12:43:08;;;;;;;11.88;2.05;;;9.20;94.30;;;;;;5015879;28;20049;-81
2022/01/05 12:45:46;;;;;;;12.68;3.42;;;9.20;94.10;;;;;;5018209;28;20022;-69
2022/01/05 12:48:35;;;;;;;19.42;3.28;;;9.30;93.30;;;;;;5013070;28;20050;-69
2022/01/05 12:51:15;;;;;;;26.58;4.18;;;9.30;93.50;;;;;;5015242;28;20030;-70
2022/01/05 12:53:56;;;;;;;12.02;2.50;;;9.30;92.90;;;;;;5009981;28;20518;-70
2022/01/05 12:56:33;;;;;;;26.45;3.40;;;9.30;92.70;;;;;;5019627;28;20434;-69
2022/01/05 12:59:01;;;;;;;21.83;2.90;;;9.40;92.90;;;;;;5011359;28;20029;-69
2022/01/05 13:01:29;;;;;;;24.08;3.38;;;9.40;92.80;;;;;;5010565;28;20037;-69